Time;durP1;ratioP1;P1;durP2;ratioP2;P2;SDS_P1;SDS_P2;PMS_P1;PMS_P2;Temp;Humidity;BMP_temperature;BMP_pressure;BME280_temperature;BME280_humidity;BME280_pressure;Samples;Min_cycle;Max_cycle;Signal;HPM_P1;HPM_P2
2023/09/22 00:02:10;;;;;;;5.60;4.40;;;;;;;15.84;100.00;97065.45;109812;1244;70663;-61
2023/09/22 00:04:40;;;;;;;;;;;;;;;15.82;100.00;97063.36;109917;1244;67717;-61
2023/09/22 00:07:11;;;;;;;5.30;3.90;;;;;;;15.81;100.00;97064.55;109875;1244;69240;-61
2023/09/22 00:09:42;;;;;;;6.40;4.80;;;;;;;15.80;100.00;97062.69;109838;1244;58952;-60
2023/09/22 00:12:12;;;;;;;6.10;4.50;;;;;;;15.80;100.00;97067.41;109843;1244;58900;-61
2023/09/22 00:14:49;;;;;;;5.80;4.70;;;;;;;15.82;100.00;97066.25;109758;1245;70628;-61
2023/09/22 00:17:22;;;;;;;5.20;3.80;;;;;;;15.84;100.00;97066.23;109770;1244;69170;-61
2023/09/22 00:19:54;;;;;;;5.00;4.30;;;;;;;15.88;100.00;97064.09;109824;1246;68661;-61
2023/09/22 00:22:24;;;;;;;5.40;4.20;;;;;;;15.91;100.00;97063.58;109807;1245;58957;-61
2023/09/22 00:24:54;;;;;;;4.80;3.80;;;;;;;15.94;100.00;97065.13;109895;1246;59010;-61
2023/09/22 00:27:25;;;;;;;6.10;4.50;;;;;;;15.98;100.00;97059.46;109799;1244;70713;-61
2023/09/22 00:29:56;;;;;;;5.50;4.60;;;;;;;16.03;100.00;97053.92;109735;1246;69328;-61
2023/09/22 00:32:27;;;;;;;4.50;4.00;;;;;;;16.08;100.00;97056.92;109721;1248;69292;-62
2023/09/22 00:35:05;;;;;;;6.70;4.40;;;;;;;16.12;100.00;97053.89;109848;1243;58959;-61
2023/09/22 00:37:34;;;;;;;5.00;4.00;;;;;;;16.15;100.00;97051.60;109812;1243;58856;-62
2023/09/22 00:40:08;;;;;;;4.10;3.30;;;;;;;16.18;100.00;97052.06;109861;1244;70641;-61
2023/09/22 00:42:39;;;;;;;4.90;3.50;;;;;;;16.20;100.00;97052.29;109790;1245;69239;-62
2023/09/22 00:45:10;;;;;;;4.30;3.70;;;;;;;16.23;100.00;97054.86;109768;1246;68684;-61
2023/09/22 00:47:42;;;;;;;4.70;4.10;;;;;;;16.23;100.00;97055.15;109852;1245;58844;-62
2023/09/22 00:50:13;;;;;;;4.80;4.00;;;;;;;16.23;100.00;97054.65;109750;1244;59402;-62
2023/09/22 00:52:43;;;;;;;6.20;4.20;;;;;;;16.23;100.00;97051.20;109790;1252;70574;-62
2023/09/22 00:55:16;;;;;;;6.80;4.50;;;;;;;16.22;100.00;97057.94;109873;1244;68456;-61
2023/09/22 00:57:46;;;;;;;6.10;4.50;;;;;;;16.23;100.00;97061.91;109769;1245;69089;-62
2023/09/22 01:00:18;;;;;;;5.30;4.00;;;;;;;16.24;100.00;97062.27;109798;1244;58855;-61
2023/09/22 01:02:51;;;;;;;5.60;4.00;;;;;;;16.24;100.00;97061.32;109884;1245;58945;-61
2023/09/22 01:05:22;;;;;;;5.30;4.00;;;;;;;16.23;100.00;97060.66;109747;1244;69834;-61
2023/09/22 01:07:53;;;;;;;5.00;4.00;;;;;;;16.23;100.00;97062.58;109843;1244;69331;-60
2023/09/22 01:10:38;;;;;;;4.90;3.70;;;;;;;16.21;100.00;97064.52;109731;1244;68581;-60
2023/09/22 01:13:09;;;;;;;5.10;4.00;;;;;;;16.21;100.00;97066.30;109720;1246;58893;-61
2023/09/22 01:15:41;;;;;;;5.70;3.90;;;;;;;16.21;100.00;97060.86;109738;1245;58894;-61
2023/09/22 01:18:13;;;;;;;5.80;4.00;;;;;;;16.21;100.00;97063.50;109757;1244;69826;-61
2023/09/22 01:20:44;;;;;;;5.50;4.40;;;;;;;16.20;100.00;97065.52;109761;1248;68793;-61
2023/09/22 01:23:16;;;;;;;5.10;3.90;;;;;;;16.19;100.00;97063.20;109850;1245;69363;-62
2023/09/22 01:25:47;;;;;;;4.90;4.20;;;;;;;16.18;100.00;97065.20;109831;1245;59344;-62
2023/09/22 01:28:18;;;;;;;5.70;4.30;;;;;;;16.20;100.00;97068.05;109921;1245;58896;-62
2023/09/22 01:30:49;;;;;;;5.20;4.50;;;;;;;16.20;100.00;97065.02;110048;1244;69855;-61
2023/09/22 01:33:21;;;;;;;5.20;4.70;;;;;;;16.19;100.00;97061.05;109907;1246;68547;-63
2023/09/22 01:35:54;;;;;;;6.10;4.80;;;;;;;16.18;100.00;97066.69;110072;1246;68633;-63
2023/09/22 01:38:27;;;;;;;4.50;3.70;;;;;;;16.16;100.00;97067.13;109806;1244;58905;-61
2023/09/22 01:40:58;;;;;;;4.80;3.80;;;;;;;16.16;100.00;97071.52;109794;1245;59436;-61
2023/09/22 01:43:29;;;;;;;5.20;4.30;;;;;;;16.16;100.00;97070.69;109756;1245;70817;-60
2023/09/22 01:46:00;;;;;;;5.30;4.50;;;;;;;16.16;100.00;97067.91;109939;1245;68512;-60
2023/09/22 01:48:30;;;;;;;4.50;3.80;;;;;;;16.17;100.00;97068.63;109980;1245;68520;-61
2023/09/22 01:51:04;;;;;;;4.40;3.50;;;;;;;16.20;100.00;97071.91;109853;1246;58897;-63
2023/09/22 01:53:35;;;;;;;6.30;4.30;;;;;;;16.22;100.00;97071.59;109895;1245;59011;-62
2023/09/22 01:56:06;;;;;;;4.80;4.00;;;;;;;16.25;100.00;97072.90;109803;1245;70577;-62
2023/09/22 01:58:37;;;;;;;4.70;3.80;;;;;;;16.28;100.00;97067.38;109909;1244;69100;-60
2023/09/22 02:01:07;;;;;;;4.40;3.80;;;;;;;16.30;100.00;97065.74;109903;1244;69293;-61
2023/09/22 02:03:39;;;;;;;5.30;4.20;;;;;;;16.33;100.00;97064.80;109890;1246;59071;-61
2023/09/22 02:06:09;;;;;;;5.30;4.20;;;;;;;16.34;100.00;97061.30;110051;1246;58899;-62
2023/09/22 02:08:42;;;;;;;7.60;5.50;;;;;;;16.37;100.00;97052.79;109977;1245;71560;-61
2023/09/22 02:11:12;;;;;;;5.80;5.20;;;;;;;16.41;100.00;97054.10;109826;1245;68530;-62
2023/09/22 02:13:43;;;;;;;5.90;5.20;;;;;;;16.46;100.00;97051.81;109991;1245;69216;-62
2023/09/22 02:16:15;;;;;;;5.80;4.40;;;;;;;16.50;100.00;97053.45;109818;1246;58879;-62
2023/09/22 02:18:46;;;;;;;5.60;4.00;;;;;;;16.55;100.00;97049.16;109958;1245;58916;-63
2023/09/22 02:21:17;;;;;;;6.00;4.20;;;;;;;16.59;100.00;97050.66;109830;1252;69784;-61
2023/09/22 02:23:48;;;;;;;5.30;4.40;;;;;;;16.62;100.00;97050.51;110028;1244;68626;-62
2023/09/22 02:26:19;;;;;;;4.70;4.00;;;;;;;16.64;100.00;97048.88;109769;1246;69419;-62
2023/09/22 02:28:51;;;;;;;4.50;4.00;;;;;;;16.65;100.00;97051.42;109958;1248;58939;-61
2023/09/22 02:31:23;;;;;;;4.90;4.40;;;;;;;16.67;100.00;97057.42;110022;1248;58883;-61
2023/09/22 02:33:55;;;;;;;6.80;5.30;;;;;;;16.68;100.00;97053.77;109981;1245;70598;-63
2023/09/22 02:36:27;;;;;;;5.80;5.10;;;;;;;16.71;100.00;97054.52;109755;1248;69603;-62
2023/09/22 02:38:58;;;;;;;5.90;4.80;;;;;;;16.73;100.00;97053.63;109805;1243;68738;-63
2023/09/22 02:41:30;;;;;;;5.90;4.50;;;;;;;16.75;100.00;97058.13;110041;1246;58880;-62
2023/09/22 02:44:00;;;;;;;6.60;4.50;;;;;;;16.78;100.00;97059.42;110037;1245;58862;-61
2023/09/22 02:46:31;;;;;;;7.60;4.80;;;;;;;16.81;100.00;97058.64;110027;1244;69829;-61
2023/09/22 02:49:05;;;;;;;5.60;4.60;;;;;;;16.84;100.00;97060.60;109902;1245;69404;-61
2023/09/22 02:51:36;;;;;;;6.70;4.90;;;;;;;16.86;100.00;97056.94;109753;1246;68348;-61
2023/09/22 02:54:08;;;;;;;6.70;5.40;;;;;;;16.87;100.00;97051.67;109721;1245;58954;-62
2023/09/22 02:56:39;;;;;;;6.10;5.10;;;;;;;16.89;100.00;97053.63;109794;1247;58900;-61
2023/09/22 02:59:10;;;;;;;6.90;4.90;;;;;;;16.90;100.00;97056.85;109950;1245;70616;-62
2023/09/22 03:01:42;;;;;;;7.30;5.00;;;;;;;16.90;100.00;97049.92;109947;1246;69159;-61
2023/09/22 03:04:13;;;;;;;6.40;5.00;;;;;;;16.90;100.00;97047.88;109892;1246;69304;-61
2023/09/22 03:06:43;;;;;;;5.80;4.30;;;;;;;16.90;100.00;97046.81;109941;1246;59753;-62
2023/09/22 03:09:14;;;;;;;7.00;5.10;;;;;;;16.90;100.00;97042.56;109940;1244;59755;-61
2023/09/22 03:11:45;;;;;;;4.90;4.00;;;;;;;16.90;100.00;97041.87;109737;1244;71611;-62
2023/09/22 03:14:15;;;;;;;5.90;4.40;;;;;;;16.88;100.00;97043.63;109742;1245;69093;-62
2023/09/22 03:16:47;;;;;;;6.50;4.50;;;;;;;16.88;100.00;97047.88;109811;1243;69337;-61
2023/09/22 03:19:17;;;;;;;6.20;4.50;;;;;;;16.88;100.00;97045.64;109825;1247;59721;-61
2023/09/22 03:21:49;;;;;;;5.80;4.30;;;;;;;16.88;100.00;97038.74;109747;1247;59614;-60
2023/09/22 03:24:20;;;;;;;6.80;4.70;;;;;;;16.88;100.00;97039.92;109829;1244;71354;-63
2023/09/22 03:26:52;;;;;;;5.30;3.80;;;;;;;16.90;100.00;97045.23;109867;1243;69268;-62
2023/09/22 03:29:24;;;;;;;5.30;4.10;;;;;;;16.90;100.00;97046.25;109875;1247;68426;-63
2023/09/22 03:31:54;;;;;;;5.00;4.10;;;;;;;16.91;100.00;97043.73;109969;1247;59689;-61
2023/09/22 03:34:23;;;;;;;;;;;;;;;16.90;100.00;97042.53;109905;1244;59733;-63
2023/09/22 03:36:54;;;;;;;;;;;;;;;16.89;100.00;97041.27;109925;1247;71580;-61
2023/09/22 03:39:26;;;;;;;6.30;4.60;;;;;;;16.87;100.00;97042.55;109961;1243;69600;-62
2023/09/22 03:41:55;;;;;;;6.00;4.80;;;;;;;16.85;100.00;97043.41;109748;1247;69863;-61
2023/09/22 03:44:26;;;;;;;6.20;4.60;;;;;;;16.84;100.00;97041.83;109795;1248;59752;-61
2023/09/22 03:46:57;;;;;;;4.90;4.30;;;;;;;16.83;100.00;97044.20;109741;1248;59702;-61
2023/09/22 03:49:28;;;;;;;4.70;4.10;;;;;;;16.81;100.00;97049.13;109806;1243;71631;-61
2023/09/22 03:51:58;;;;;;;4.70;4.20;;;;;;;16.79;100.00;97050.19;109857;1244;69158;-61
2023/09/22 03:54:29;;;;;;;5.10;4.60;;;;;;;16.79;100.00;97054.02;109823;1244;68802;-61
2023/09/22 03:57:00;;;;;;;6.50;4.80;;;;;;;16.77;100.00;97055.18;109781;1246;59771;-61
2023/09/22 03:59:31;;;;;;;6.10;4.80;;;;;;;16.75;100.00;97054.30;109705;1247;59716;-61
2023/09/22 04:02:01;;;;;;;5.80;4.60;;;;;;;16.74;100.00;97054.75;109771;1245;70492;-62
2023/09/22 04:04:32;;;;;;;6.70;5.20;;;;;;;16.73;100.00;97054.66;109806;1246;69689;-62
2023/09/22 04:07:04;;;;;;;6.80;4.80;;;;;;;16.72;100.00;97059.34;109777;1245;69308;-62
2023/09/22 04:09:34;;;;;;;6.90;4.70;;;;;;;16.70;100.00;97063.38;109900;1245;60083;-62
2023/09/22 04:12:04;;;;;;;6.30;4.50;;;;;;;16.68;100.00;97063.13;109880;1245;59636;-62
2023/09/22 04:14:35;;;;;;;5.90;4.50;;;;;;;16.66;100.00;97059.63;109788;1246;71997;-61
2023/09/22 04:17:05;;;;;;;5.80;4.40;;;;;;;16.65;100.00;97056.76;109730;1244;68540;-62
2023/09/22 04:19:36;;;;;;;5.60;4.50;;;;;;;16.64;100.00;97057.02;109804;1242;69663;-62
2023/09/22 04:22:07;;;;;;;6.20;4.60;;;;;;;16.61;100.00;97065.38;109839;1243;59709;-62
2023/09/22 04:24:47;;;;;;;6.30;4.30;;;;;;;16.56;100.00;97071.05;109834;1246;59671;-61
2023/09/22 04:27:16;;;;;;;6.30;5.60;;;;;;;16.48;100.00;97064.41;109754;1242;72272;-62
2023/09/22 04:29:47;;;;;;;5.30;4.70;;;;;;;16.39;100.00;97063.94;109890;1246;69660;-62
2023/09/22 04:32:18;;;;;;;6.10;4.90;;;;;;;16.32;100.00;97066.41;109888;1244;69263;-61
2023/09/22 04:34:48;;;;;;;6.30;5.20;;;;;;;16.28;100.00;97068.20;109957;1243;59747;-62
2023/09/22 04:37:23;;;;;;;7.20;5.40;;;;;;;16.27;100.00;97066.25;109805;1246;59746;-63
2023/09/22 04:39:55;;;;;;;7.40;4.70;;;;;;;16.26;100.00;97064.36;109985;1247;71340;-61
2023/09/22 04:42:25;;;;;;;6.10;4.80;;;;;;;16.26;100.00;97065.09;109936;1246;68502;-61
2023/09/22 04:44:55;;;;;;;6.80;5.80;;;;;;;16.27;100.00;97065.20;109947;1246;68479;-61
2023/09/22 04:47:24;;;;;;;6.10;4.80;;;;;;;16.28;100.00;97066.45;109816;1246;59688;-63
2023/09/22 04:49:54;;;;;;;;;;;;;;;16.32;100.00;97069.45;109971;1243;59698;-61
2023/09/22 04:52:23;;;;;;;5.80;4.70;;;;;;;16.36;100.00;97067.81;109993;1245;70554;-61
2023/09/22 04:54:54;;;;;;;7.40;5.90;;;;;;;16.40;100.00;97067.94;109796;1244;67484;-63
2023/09/22 04:57:24;;;;;;;8.60;6.40;;;;;;;16.40;100.00;97071.08;109918;1243;69311;-63
2023/09/22 04:59:54;;;;;;;10.50;8.20;;;;;;;16.38;100.00;97072.38;109843;1246;60180;-61
2023/09/22 05:02:24;;;;;;;7.70;6.10;;;;;;;16.30;100.00;97078.20;109867;1245;59703;-61
2023/09/22 05:04:53;;;;;;;7.80;5.70;;;;;;;16.26;100.00;97077.75;109891;1245;70981;-61
2023/09/22 05:07:23;;;;;;;7.40;5.60;;;;;;;16.34;100.00;97080.11;109889;1246;68293;-61
2023/09/22 05:09:53;;;;;;;7.30;5.70;;;;;;;16.48;100.00;97076.00;109833;1246;69953;-63
2023/09/22 05:12:22;;;;;;;;;;;;;;;16.68;100.00;97078.98;109857;1243;59714;-61
2023/09/22 05:14:52;;;;;;;6.50;5.30;;;;;;;16.90;100.00;97075.79;109769;1245;59692;-61
2023/09/22 05:17:24;;;;;;;6.20;4.90;;;;;;;17.21;100.00;97072.77;109936;1246;70852;-61
2023/09/22 05:19:54;;;;;;;5.90;4.60;;;;;;;17.51;100.00;97079.45;109955;1243;67703;-61
2023/09/22 05:22:24;;;;;;;7.30;4.80;;;;;;;17.81;100.00;97082.40;109845;1243;69364;-61
2023/09/22 05:24:54;;;;;;;6.90;5.00;;;;;;;18.16;100.00;97084.41;109826;1243;59735;-62
2023/09/22 05:27:24;;;;;;;7.20;5.10;;;;;;;18.54;100.00;97082.36;109895;1245;59691;-63
2023/09/22 05:29:55;;;;;;;4.90;4.00;;;;;;;18.96;100.00;97078.98;109799;1245;71493;-64
2023/09/22 05:32:24;;;;;;;5.90;4.20;;;;;;;19.40;100.00;97079.14;110030;1246;69265;-63
2023/09/22 05:34:53;;;;;;;;;;;;;;;19.81;100.00;97081.11;109859;1243;69370;-62
2023/09/22 05:37:23;;;;;;;5.40;4.10;;;;;;;20.18;98.83;97081.48;110021;1245;59786;-62
2023/09/22 05:39:53;;;;;;;6.30;4.60;;;;;;;20.56;96.41;97084.05;110038;1245;59630;-62
2023/09/22 05:42:23;;;;;;;5.20;4.70;;;;;;;20.91;96.38;97080.61;110002;1245;71391;-62
2023/09/22 05:44:53;;;;;;;7.80;4.90;;;;;;;21.20;88.98;97085.97;109919;1244;68603;-61
2023/09/22 05:47:23;;;;;;;6.50;5.10;;;;;;;21.31;85.30;97088.09;109865;1243;69108;-61
2023/09/22 05:49:52;;;;;;;7.60;5.70;;;;;;;21.39;84.50;97087.72;109882;1245;59686;-61
2023/09/22 05:52:23;;;;;;;5.30;4.70;;;;;;;21.55;84.61;97088.20;109858;1246;59692;-61
2023/09/22 05:54:53;;;;;;;5.50;4.80;;;;;;;21.62;87.78;97092.32;109798;1245;72359;-62
2023/09/22 05:57:24;;;;;;;6.60;4.90;;;;;;;21.67;80.76;97092.20;109891;1243;69478;-62
2023/09/22 05:59:55;;;;;;;6.60;5.40;;;;;;;21.79;78.49;97088.80;109967;1246;69865;-63
2023/09/22 06:02:25;;;;;;;6.60;4.80;;;;;;;21.93;76.98;97090.50;109870;1243;60216;-63
2023/09/22 06:04:55;;;;;;;8.10;5.10;;;;;;;22.21;79.07;97093.87;109984;1245;59689;-63
2023/09/22 06:07:25;;;;;;;6.60;5.30;;;;;;;22.45;77.06;97098.28;109963;1245;71964;-60
2023/09/22 06:09:55;;;;;;;5.60;5.00;;;;;;;22.48;74.87;97095.27;109779;1245;69174;-62
2023/09/22 06:12:27;;;;;;;5.50;4.50;;;;;;;22.85;79.10;97096.63;109752;1245;69271;-61
2023/09/22 06:14:59;;;;;;;7.30;4.60;;;;;;;23.35;77.85;97098.56;109808;1245;59678;-62
2023/09/22 06:17:29;;;;;;;5.80;4.00;;;;;;;23.55;73.12;97096.63;109940;1243;59699;-62
2023/09/22 06:20:05;;;;;;;6.70;5.10;;;;;;;23.95;74.34;97097.92;109845;1243;70435;-61
2023/09/22 06:22:37;;;;;;;6.00;4.60;;;;;;;24.10;68.71;97103.16;109875;1243;68135;-61
2023/09/22 06:25:08;;;;;;;5.80;4.50;;;;;;;24.25;67.92;97104.23;109950;1243;69265;-62
2023/09/22 06:27:38;;;;;;;5.30;4.30;;;;;;;24.46;66.73;97104.29;110001;1243;59754;-62
2023/09/22 06:30:11;;;;;;;5.70;4.50;;;;;;;24.75;66.80;97105.64;109968;1245;59670;-62
2023/09/22 06:32:41;;;;;;;6.80;4.80;;;;;;;25.00;66.90;97103.75;109789;1246;70422;-62
2023/09/22 06:35:13;;;;;;;5.80;4.00;;;;;;;25.05;65.62;97102.21;109782;1245;68656;-62
2023/09/22 06:37:42;;;;;;;6.50;4.60;;;;;;;25.03;65.45;97104.81;109780;1246;69507;-62
2023/09/22 06:40:11;;;;;;;6.00;4.70;;;;;;;24.96;63.35;97108.77;109847;1245;59729;-62
2023/09/22 06:42:44;;;;;;;5.80;4.40;;;;;;;24.76;61.41;97111.98;109861;1245;59711;-61
2023/09/22 06:45:18;;;;;;;5.50;4.40;;;;;;;24.54;61.88;97112.30;109868;1245;71466;-61
2023/09/22 06:47:48;;;;;;;4.80;4.00;;;;;;;24.28;61.16;97114.34;109963;1245;68504;-61
2023/09/22 06:50:19;;;;;;;6.40;4.40;;;;;;;24.11;61.74;97119.98;109842;1247;69889;-61
2023/09/22 06:52:48;;;;;;;5.40;4.20;;;;;;;24.03;62.01;97123.06;109919;1245;60068;-61
2023/09/22 06:55:18;;;;;;;5.50;4.50;;;;;;;23.98;62.03;97122.14;109740;1246;60123;-61
2023/09/22 06:57:48;;;;;;;7.20;4.80;;;;;;;23.92;62.19;97117.17;109793;1246;71502;-61
2023/09/22 07:00:18;;;;;;;6.80;4.70;;;;;;;24.15;62.24;97121.97;109769;1246;69292;-61
2023/09/22 07:02:48;;;;;;;5.30;4.30;;;;;;;24.60;62.63;97120.27;109973;1246;69854;-61
2023/09/22 07:05:21;;;;;;;6.70;3.70;;;;;;;25.13;61.99;97121.98;109824;1247;59735;-62
2023/09/22 07:07:52;;;;;;;4.70;4.20;;;;;;;25.33;57.64;97119.05;109956;1246;59695;-61
2023/09/22 07:10:23;;;;;;;5.20;4.10;;;;;;;25.72;60.19;97122.41;109790;1245;71012;-63
2023/09/22 07:12:52;;;;;;;7.20;4.50;;;;;;;26.15;58.53;97125.13;109929;1246;69663;-63
2023/09/22 07:15:23;;;;;;;5.20;4.40;;;;;;;26.56;56.65;97123.84;109800;1246;68439;-61
2023/09/22 07:17:52;;;;;;;5.80;3.90;;;;;;;26.76;53.03;97120.44;109791;1247;59718;-63
2023/09/22 07:20:21;;;;;;;;;;;;;;;26.85;52.89;97120.35;109893;1245;59687;-62
2023/09/22 07:22:51;;;;;;;5.60;4.00;;;;;;;26.90;51.90;97121.45;109805;1243;71438;-61
2023/09/22 07:25:22;;;;;;;5.80;3.80;;;;;;;27.15;50.52;97120.64;109862;1245;69212;-63
2023/09/22 07:27:53;;;;;;;4.80;3.50;;;;;;;27.29;50.54;97116.60;109859;1243;69300;-63
2023/09/22 07:30:23;;;;;;;6.40;4.80;;;;;;;27.52;49.88;97119.91;109950;1244;59750;-60
2023/09/22 07:32:52;;;;;;;5.30;4.10;;;;;;;27.60;49.01;97120.45;109962;1245;59717;-63
2023/09/22 07:35:22;;;;;;;5.40;4.00;;;;;;;27.48;49.00;97121.73;109967;1246;72082;-62
2023/09/22 07:37:51;;;;;;;7.00;4.30;;;;;;;27.47;48.55;97118.86;109957;1245;69821;-62
2023/09/22 07:40:20;;;;;;;4.70;3.50;;;;;;;27.63;49.26;97118.23;109943;1243;69835;-62
2023/09/22 07:42:49;;;;;;;4.50;3.60;;;;;;;27.86;48.37;97114.23;109975;1243;59671;-62
2023/09/22 07:45:19;;;;;;;5.00;4.00;;;;;;;27.98;47.62;97113.15;109903;1245;60080;-62
2023/09/22 07:47:49;;;;;;;4.60;3.80;;;;;;;28.06;47.68;97113.64;109877;1243;71848;-62
2023/09/22 07:50:20;;;;;;;4.60;3.60;;;;;;;28.50;48.22;97118.09;109808;1243;69086;-61
2023/09/22 07:52:49;;;;;;;4.70;3.90;;;;;;;28.94;47.15;97118.02;109930;1247;69885;-61
2023/09/22 07:55:21;;;;;;;5.90;3.80;;;;;;;29.07;45.50;97121.29;109811;1246;59822;-61
2023/09/22 07:57:52;;;;;;;4.80;4.10;;;;;;;29.52;46.02;97123.27;109742;1243;59706;-61
2023/09/22 08:00:26;;;;;;;4.70;3.90;;;;;;;29.87;44.93;97122.59;109765;1243;72006;-63
2023/09/22 08:02:55;;;;;;;3.90;3.30;;;;;;;30.22;45.08;97120.17;109814;1245;69783;-61
2023/09/22 08:05:24;;;;;;;5.30;3.20;;;;;;;30.66;44.00;97127.98;109790;1246;69706;-61
2023/09/22 08:07:54;;;;;;;4.20;3.50;;;;;;;30.87;43.57;97128.38;109732;1243;59743;-61
2023/09/22 08:10:24;;;;;;;5.60;4.20;;;;;;;31.27;42.62;97127.91;109867;1244;59750;-61
2023/09/22 08:12:54;;;;;;;6.50;4.20;;;;;;;31.49;40.91;97130.31;109754;1243;72061;-61
2023/09/22 08:15:24;;;;;;;5.40;4.10;;;;;;;31.54;39.70;97134.27;109766;1244;68697;-61
2023/09/22 08:17:56;;;;;;;4.90;3.70;;;;;;;30.67;40.02;97131.20;109747;1242;69302;-61
2023/09/22 08:20:26;;;;;;;4.20;3.50;;;;;;;31.14;40.88;97130.43;109755;1246;59752;-61
2023/09/22 08:22:57;;;;;;;4.10;3.30;;;;;;;31.49;40.05;97130.85;109789;1243;59745;-61
2023/09/22 08:25:27;;;;;;;6.30;3.70;;;;;;;31.72;39.68;97125.17;109785;1246;71398;-61
2023/09/22 08:27:58;;;;;;;5.10;3.70;;;;;;;31.93;38.51;97129.11;109793;1245;70631;-61
2023/09/22 08:30:28;;;;;;;6.30;4.10;;;;;;;31.90;37.99;97122.58;109707;1243;68712;-61
2023/09/22 08:32:58;;;;;;;4.50;3.40;;;;;;;31.53;38.10;97122.95;109857;1245;59640;-61
2023/09/22 08:35:28;;;;;;;5.10;3.50;;;;;;;31.44;38.68;97122.67;109837;1243;59750;-61
2023/09/22 08:37:57;;;;;;;6.90;3.40;;;;;;;32.06;39.01;97125.17;109767;1243;71977;-61
2023/09/22 08:40:26;;;;;;;6.10;4.50;;;;;;;32.42;37.30;97124.02;109844;1243;70037;-61
2023/09/22 08:42:56;;;;;;;5.80;3.70;;;;;;;32.48;36.71;97122.77;109791;1243;70248;-61
2023/09/22 08:45:25;;;;;;;4.50;3.00;;;;;;;32.38;36.82;97122.55;109825;1245;59765;-61
2023/09/22 08:47:55;;;;;;;4.20;3.00;;;;;;;32.53;36.90;97119.44;109723;1245;59702;-61
2023/09/22 08:50:26;;;;;;;5.20;3.30;;;;;;;32.76;36.98;97121.98;109912;1245;70497;-61
2023/09/22 08:52:57;;;;;;;5.20;3.70;;;;;;;32.98;36.61;97119.81;109906;1246;70289;-61
2023/09/22 08:55:26;;;;;;;4.50;3.10;;;;;;;33.19;35.87;97119.67;109846;1246;69409;-62
2023/09/22 08:57:55;;;;;;;5.50;3.70;;;;;;;32.91;35.23;97121.83;109746;1243;59714;-63
2023/09/22 09:00:30;;;;;;;5.40;3.40;;;;;;;33.09;35.63;97121.04;109743;1243;59702;-61
2023/09/22 09:03:08;;;;;;;5.00;3.30;;;;;;;33.21;35.30;97114.42;109766;1243;71372;-63
2023/09/22 09:05:43;;;;;;;6.50;3.20;;;;;;;33.19;34.88;97114.80;109761;1245;68654;-61
2023/09/22 09:08:18;;;;;;;5.60;3.40;;;;;;;33.27;34.28;97113.15;109376;1245;478188;-61
2023/09/22 09:10:48;;;;;;;5.50;3.60;;;;;;;33.16;34.60;97109.91;109851;1247;59737;-61
2023/09/22 09:13:27;;;;;;;5.40;3.40;;;;;;;33.15;34.65;97119.27;109847;1243;59694;-61
2023/09/22 09:15:58;;;;;;;4.90;3.40;;;;;;;33.02;34.20;97109.84;109726;1245;72369;-62
2023/09/22 09:18:29;;;;;;;5.30;3.20;;;;;;;33.05;34.32;97110.13;109803;1245;69896;-61
2023/09/22 09:21:10;;;;;;;5.50;4.10;;;;;;;32.82;34.61;97105.90;109761;1247;69782;-61
2023/09/22 09:23:54;;;;;;;5.40;3.20;;;;;;;32.61;35.04;97104.83;109806;1246;59706;-63
2023/09/22 09:26:31;;;;;;;4.00;3.00;;;;;;;32.78;34.98;97101.96;110023;1245;59690;-63
2023/09/22 09:29:00;;;;;;;5.60;3.30;;;;;;;32.81;34.15;97102.86;109990;1243;70740;-62
2023/09/22 09:31:46;;;;;;;3.70;2.80;;;;;;;33.17;33.94;97106.70;110047;1246;69734;-62
2023/09/22 09:34:16;;;;;;;5.80;3.70;;;;;;;33.32;33.53;97102.50;109964;1244;68556;-62
2023/09/22 09:36:46;;;;;;;4.80;3.00;;;;;;;33.71;33.79;97094.63;109861;1245;59705;-63
2023/09/22 09:39:18;;;;;;;4.90;2.70;;;;;;;34.00;32.88;97091.88;109913;1245;60133;-62
2023/09/22 09:41:50;;;;;;;4.60;2.80;;;;;;;34.50;32.87;97092.41;109845;1245;71996;-62
2023/09/22 09:44:22;;;;;;;5.20;3.30;;;;;;;34.85;32.56;97093.23;110008;1245;69235;-62
2023/09/22 09:46:52;;;;;;;6.20;3.30;;;;;;;35.18;30.86;97094.91;109898;1247;68606;-61
2023/09/22 09:49:21;;;;;;;4.10;2.40;;;;;;;34.89;30.16;97095.46;109834;1243;59686;-61
2023/09/22 09:51:52;;;;;;;4.80;2.80;;;;;;;34.10;31.43;97099.33;109898;1244;59751;-61
2023/09/22 09:54:25;;;;;;;3.20;2.60;;;;;;;34.07;31.58;97094.50;109906;1246;71999;-62
2023/09/22 09:56:54;;;;;;;5.00;2.60;;;;;;;34.24;30.71;97091.48;109763;1243;68831;-62
2023/09/22 09:59:25;;;;;;;5.40;3.20;;;;;;;34.05;31.29;97097.41;109894;1245;69883;-61
2023/09/22 10:01:55;;;;;;;5.70;3.00;;;;;;;34.31;31.45;97095.93;109853;1246;59746;-61
2023/09/22 10:04:27;;;;;;;3.50;2.20;;;;;;;34.29;30.95;97092.36;109989;1245;59752;-62
2023/09/22 10:06:57;;;;;;;5.20;2.80;;;;;;;34.02;31.41;97087.65;109909;1245;70507;-61
2023/09/22 10:09:27;;;;;;;7.10;3.00;;;;;;;34.08;31.36;97090.32;109959;1243;69092;-61
2023/09/22 10:11:59;;;;;;;5.70;2.80;;;;;;;34.13;30.43;97086.89;109859;1243;69325;-61
2023/09/22 10:14:44;;;;;;;6.00;2.80;;;;;;;33.72;31.58;97080.28;109965;1245;59749;-61
2023/09/22 10:17:24;;;;;;;5.10;2.70;;;;;;;33.68;31.62;97075.42;109957;1245;59758;-61
2023/09/22 10:19:56;;;;;;;4.30;2.90;;;;;;;34.34;31.87;97076.95;109962;1243;71962;-61
2023/09/22 10:22:25;;;;;;;4.10;2.70;;;;;;;35.13;30.46;97082.05;109850;1243;69869;-61
2023/09/22 10:25:13;;;;;;;5.10;2.70;;;;;;;34.85;30.67;97078.81;109759;1243;69342;-62
2023/09/22 10:27:59;;;;;;;4.40;2.40;;;;;;;34.72;30.81;97078.88;109943;1242;59702;-62
2023/09/22 10:30:43;;;;;;;4.40;2.90;;;;;;;34.70;30.59;97089.14;109896;1245;59703;-62
2023/09/22 10:33:16;;;;;;;6.20;2.90;;;;;;;34.97;29.70;97082.75;109887;1246;71538;-61
2023/09/22 10:35:47;;;;;;;4.30;2.60;;;;;;;34.90;29.68;97082.11;109860;1245;69235;-62
2023/09/22 10:38:20;;;;;;;6.10;2.90;;;;;;;34.68;29.41;97083.89;109904;1243;68767;-61
2023/09/22 10:41:07;;;;;;;5.50;2.90;;;;;;;34.25;29.88;97081.65;109782;1243;59757;-61
2023/09/22 10:43:59;;;;;;;4.80;2.50;;;;;;;33.67;30.80;97084.60;110009;1244;59696;-61
2023/09/22 10:46:28;;;;;;;5.50;2.40;;;;;;;34.00;30.56;97074.64;109776;1243;70894;-61
2023/09/22 10:48:57;;;;;;;6.30;3.10;;;;;;;34.72;30.51;97078.23;109897;1243;68563;-62
2023/09/22 10:51:43;;;;;;;5.20;2.50;;;;;;;34.49;29.66;97072.34;109943;1245;69598;-61
2023/09/22 10:54:12;;;;;;;4.70;2.60;;;;;;;34.27;30.20;97076.13;109988;1243;59748;-61
2023/09/22 10:56:43;;;;;;;4.40;2.50;;;;;;;34.88;29.47;97076.90;109968;1242;59687;-61
2023/09/22 10:59:13;;;;;;;4.50;2.50;;;;;;;34.30;30.02;97073.85;110002;1243;70539;-61
2023/09/22 11:01:46;;;;;;;5.00;2.70;;;;;;;33.64;30.72;97074.70;109971;1243;69856;-62
2023/09/22 11:04:17;;;;;;;4.00;2.60;;;;;;;33.07;31.84;97073.63;109981;1245;69867;-62
2023/09/22 11:06:46;;;;;;;4.50;2.50;;;;;;;33.67;31.46;97069.90;109945;1245;59655;-63
2023/09/22 11:09:15;;;;;;;4.30;2.50;;;;;;;34.08;30.88;97068.74;109942;1245;59758;-63
2023/09/22 11:11:45;;;;;;;2.70;2.10;;;;;;;34.65;30.37;97068.04;110007;1243;72294;-63
2023/09/22 11:14:20;;;;;;;4.00;3.00;;;;;;;35.22;29.99;97062.73;110003;1243;68657;-61
2023/09/22 11:16:49;;;;;;;4.10;2.60;;;;;;;35.13;29.75;97065.77;109973;1243;69913;-63
2023/09/22 11:19:18;;;;;;;5.30;2.70;;;;;;;34.77;29.92;97061.02;110015;1243;59748;-62
2023/09/22 11:21:48;;;;;;;4.10;2.20;;;;;;;34.32;30.51;97059.91;110022;1245;59764;-62
2023/09/22 11:24:18;;;;;;;5.30;3.10;;;;;;;34.30;30.47;97057.58;109913;1243;71398;-63
2023/09/22 11:26:47;;;;;;;3.60;2.50;;;;;;;34.31;30.40;97055.09;110028;1243;69054;-63
2023/09/22 11:29:17;;;;;;;4.90;2.70;;;;;;;34.40;30.85;97050.69;109824;1246;69917;-62
2023/09/22 11:31:49;;;;;;;4.20;2.30;;;;;;;34.86;30.36;97044.47;110019;1245;59753;-63
2023/09/22 11:34:20;;;;;;;4.00;2.20;;;;;;;35.83;29.60;97037.75;109956;1247;59757;-62
2023/09/22 11:36:51;;;;;;;3.60;2.20;;;;;;;36.13;28.74;97035.75;110041;1244;71374;-62
2023/09/22 11:39:29;;;;;;;3.50;2.40;;;;;;;36.35;28.54;97036.71;110030;1245;69863;-62
2023/09/22 11:41:59;;;;;;;5.70;3.00;;;;;;;35.76;28.39;97032.60;109935;1246;69891;-62